Date,TemperatureHighF,TemperatureAvgF,TemperatureLowF,DewpointHighF,DewpointAvgF,DewpointLowF,HumidityHigh,HumidityAvg,HumidityLow,PressureMaxIn,PressureMinIn,WindSpeedMaxMPH,WindSpeedAvgMPH,GustSpeedMaxMPH,PrecipitationSumIn
2013-1-1,36.3,33.1,24.0,30.0,25.6,15.0,88,74,61,30.03,29.87,12,4,0,0.02
2013-1-2,28.5,24.1,18.4,16.0,14.8,12.0,77,68,60,30.22,30.01,10,3,0,0.00
2013-1-3,31.1,25.3,20.7,21.0,16.1,14.0,76,68,58,30.22,30.10,8,4,0,0.00
2013-1-4,34.0,31.7,29.8,23.0,21.7,20.0,73,67,62,30.12,30.00,17,6,0,0.00
2013-1-5,37.7,32.0,28.7,24.0,21.8,19.0,78,67,57,30.32,30.06,18,4,0,0.00
2013-1-6,42.0,35.4,28.6,30.0,27.2,22.0,91,73,58,30.24,30.00,7,2,0,0.00
2013-1-7,41.4,36.8,30.3,30.0,27.0,24.0,79,68,55,30.41,30.09,9,3,0,0.00
2013-1-8,44.7,35.8,28.6,32.0,27.8,24.0,83,73,57,30.42,30.36,6,2,0,0.00
2013-1-9,44.7,39.3,31.0,38.0,33.0,27.0,86,78,62,30.40,30.18,11,2,0,0.00
2013-1-10,45.4,40.5,36.7,31.0,27.2,26.0,67,59,48,30.55,30.27,11,4,0,0.00
2013-1-11,43.1,38.9,33.9,42.0,32.4,24.0,95,78,62,30.53,30.10,11,3,0,0.32
2013-1-12,44.5,41.5,38.0,44.0,40.3,37.0,96,95,95,30.18,30.10,5,1,0,0.01
2013-1-13,46.5,43.4,40.6,46.0,42.5,40.0,97,96,96,30.16,29.99,6,1,0,0.01
2013-1-14,52.1,48.5,44.9,50.0,44.1,33.0,97,86,58,30.26,29.90,7,2,0,0.01
2013-1-15,34.8,33.9,31.9,29.0,27.4,26.0,88,77,72,30.30,30.21,5,1,0,0.12
2013-1-16,35.3,31.5,29.8,33.0,29.8,28.0,95,93,89,30.21,29.84,8,0,0,0.29
2013-1-17,39.2,35.7,32.1,33.0,29.3,25.0,90,78,66,30.10,29.94,14,4,0,0.19
2013-1-18,32.0,25.7,22.0,25.0,13.4,6.0,79,60,43,30.48,30.01,11,3,0,0.00
2013-1-19,46.7,34.8,22.4,29.0,23.8,13.0,80,65,47,30.41,29.93,6,2,0,0.03
2013-1-20,49.0,38.4,26.6,31.0,23.0,13.0,78,56,29,30.05,29.74,20,6,0,0.01
2013-1-21,28.0,24.7,20.3,19.0,12.3,9.0,79,60,53,30.09,29.87,22,3,0,0.00
2013-1-22,22.0,14.6,9.3,8.0,-0.6,-6.0,61,52,39,30.25,29.88,20,9,0,0.00
2013-1-23,15.7,10.6,7.3,3.0,-0.5,-6.0,73,61,50,30.29,30.20,13,4,0,0.00
2013-1-24,20.8,14.0,7.9,5.0,1.6,-2.0,76,59,38,30.46,30.15,14,4,0,0.00
2013-1-25,19.3,13.5,9.5,12.0,4.8,-2.0,89,69,52,30.47,30.09,8,2,0,0.00
2013-1-26,24.4,17.5,12.0,11.0,8.6,7.0,89,69,49,30.42,30.08,12,3,0,0.00
2013-1-27,30.5,22.6,14.5,15.0,11.3,7.0,73,63,50,30.57,30.42,9,2,0,0.00
2013-1-28,34.5,28.2,21.9,33.0,24.0,13.0,94,84,61,30.52,30.04,6,1,0,0.00
2013-1-29,48.7,42.8,34.7,44.0,40.2,33.0,95,90,82,30.16,30.03,9,4,0,0.03
2013-1-30,61.9,50.8,42.5,59.0,49.4,41.0,96,95,87,30.06,29.32,7,3,0,0.48
2013-1-31,58.6,55.9,53.2,58.0,54.8,52.0,96,95,95,29.32,29.09,9,4,0,1.14
2013-2-1,26.5,17.8,18.9,9.0,-13.4,-99.9,58,44,44,30.23,29.93,13,-189,0,0.00
2013-2-2,23.3,18.8,13.7,18.0,10.1,5.0,91,70,52,30.30,30.06,9,3,0,0.00
2013-2-3,25.6,22.3,17.6,21.0,18.4,15.0,91,85,75,30.06,29.83,12,2,0,0.04
2013-2-4,26.2,22.5,18.6,17.0,11.5,9.0,77,63,51,30.02,29.86,14,5,0,0.00
2013-2-5,28.3,26.2,23.4,26.0,22.9,15.0,93,87,70,29.98,29.90,6,1,0,0.00
2013-2-6,35.9,30.0,25.5,27.0,21.7,12.0,93,73,53,30.36,29.94,10,3,0,0.01
2013-2-7,30.1,25.7,20.3,20.0,13.9,10.0,72,61,53,30.50,30.32,8,3,0,0.00
2013-2-8,33.1,30.5,28.1,31.0,27.5,20.0,94,89,73,30.31,29.71,16,5,0,0.01
2013-2-9,30.0,24.4,18.1,29.0,16.1,8.0,94,72,49,30.38,29.79,21,6,0,0.00
2013-2-10,35.0,25.1,14.6,19.0,12.1,8.0,78,60,37,30.50,30.33,10,2,0,0.05
2013-2-11,43.4,35.4,28.9,42.0,32.8,19.0,95,90,66,30.33,29.69,10,2,0,0.17
2013-2-12,39.6,37.2,33.2,38.0,25.9,24.0,95,64,57,29.99,29.77,14,6,0,0.00
2013-2-13,40.3,33.9,27.6,31.0,25.8,22.0,92,73,59,29.97,29.69,6,1,0,0.00
2013-2-14,41.8,34.8,28.1,31.0,28.1,24.0,94,78,54,30.02,29.73,7,1,0,0.12
2013-2-15,51.2,40.0,31.0,33.0,29.6,25.0,92,69,48,30.02,29.93,13,3,0,0.02
2013-2-16,32.5,30.2,25.7,31.0,23.7,12.0,93,78,56,29.99,29.79,9,2,0,0.08
2013-2-17,26.6,22.7,15.9,11.0,5.8,0.0,56,49,39,30.06,29.75,21,8,0,0.00
2013-2-18,32.1,22.4,13.9,13.0,6.8,1.0,61,52,40,30.32,30.08,24,6,0,0.00
2013-2-19,39.6,33.0,26.7,38.0,26.1,13.0,94,77,54,30.22,29.73,11,3,0,0.33
2013-2-20,33.0,25.7,21.7,24.0,13.4,10.0,70,60,53,30.03,29.77,20,10,0,0.00
2013-2-21,32.1,24.9,20.6,16.0,13.7,11.0,73,63,51,30.31,30.02,19,8,0,0.00
2013-2-22,33.5,27.3,19.3,30.0,20.2,13.0,88,75,65,30.42,30.27,9,3,0,0.00
2013-2-23,41.2,36.8,32.1,40.0,35.2,29.0,95,94,88,30.28,29.83,12,5,0,0.09
2013-2-24,41.5,35.0,30.4,37.0,29.6,22.0,94,81,66,30.02,29.79,12,4,0,0.01
2013-2-25,40.0,34.4,29.0,28.0,25.6,22.0,80,71,60,30.25,30.02,11,3,0,0.00
2013-2-26,41.3,35.6,32.1,32.0,29.2,26.0,92,77,69,30.27,29.82,23,7,0,0.24
2013-2-27,44.5,40.6,33.6,42.0,37.2,32.0,94,87,78,29.82,29.51,22,8,0,0.25
2013-2-28,42.4,38.6,33.4,36.0,32.1,28.0,88,78,59,29.65,29.57,12,4,0,0.00
2013-3-1,40.8,35.5,32.1,31.0,27.9,24.0,89,74,62,29.83,29.64,16,4,0,0.00
2013-3-2,34.4,30.8,27.2,25.0,22.2,20.0,76,70,64,29.82,29.74,12,5,0,0.00
2013-3-3,33.8,28.2,24.5,20.0,18.5,17.0,77,67,57,29.82,29.73,14,6,0,0.00
2013-3-4,38.3,30.7,25.6,22.0,19.0,17.0,71,62,48,29.96,29.81,17,8,0,0.00
2013-3-5,45.4,35.8,29.0,27.0,24.4,21.0,74,64,48,30.05,29.96,11,4,0,0.00
2013-3-6,40.3,36.7,34.3,33.0,29.9,26.0,85,77,69,29.97,29.83,19,8,0,0.02
2013-3-7,41.1,35.8,31.0,30.0,27.2,25.0,89,72,56,30.11,29.96,15,5,0,0.00
2013-3-8,42.3,33.1,27.4,31.0,27.5,24.0,92,81,63,30.24,30.05,13,6,0,0.06
2013-3-9,57.6,43.4,31.9,26.0,21.6,13.0,68,46,24,30.33,30.22,12,3,0,0.00
2013-3-10,54.9,43.2,34.9,36.0,28.6,17.0,86,59,35,30.37,30.27,11,4,0,0.00
2013-3-11,54.6,43.4,34.5,46.0,38.7,31.0,95,85,61,30.31,30.06,9,3,0,0.00
2013-3-12,55.0,49.3,41.6,54.0,46.5,35.0,95,90,77,30.05,29.68,12,4,0,1.42
2013-3-13,45.6,38.7,33.0,34.0,27.7,21.0,79,65,47,29.93,29.82,12,5,0,0.00
2013-3-14,38.3,31.8,27.4,20.0,13.5,9.0,68,48,32,29.99,29.89,17,8,0,0.00
2013-3-15,45.5,35.7,25.5,31.0,21.0,12.0,64,56,46,30.02,29.75,15,5,0,0.00
2013-3-16,41.9,32.8,30.1,30.0,26.2,21.0,90,77,63,29.94,29.77,11,2,0,0.06
2013-3-17,33.9,30.4,26.2,28.0,20.1,15.0,91,67,51,30.32,29.94,10,3,0,0.01
2013-3-18,33.1,28.4,24.8,29.0,19.3,10.0,93,70,53,30.40,29.96,15,6,0,0.00
2013-3-19,46.4,35.9,30.6,36.0,29.6,18.0,95,80,46,29.95,29.72,16,4,0,0.40
2013-3-20,43.2,35.2,29.3,23.0,18.6,17.0,66,52,36,29.91,29.80,20,6,0,0.00
2013-3-21,35.3,29.9,26.2,26.0,17.5,12.0,88,61,39,29.84,29.67,10,4,0,0.02
2013-3-22,37.6,30.7,25.1,23.0,18.8,12.0,76,62,48,29.93,29.77,16,6,0,0.00
2013-3-23,42.2,35.1,29.1,22.0,20.1,19.0,67,55,40,29.97,29.88,16,7,0,0.00
2013-3-24,43.9,36.9,29.3,26.0,20.6,18.0,66,53,39,29.98,29.71,10,3,0,0.00
2013-3-25,35.9,34.0,31.5,33.0,28.8,24.0,93,82,65,29.71,29.50,11,4,0,0.21
2013-3-26,48.1,39.2,33.1,33.0,29.5,24.0,93,71,41,29.91,29.64,11,4,0,0.01
2013-3-27,47.8,39.4,32.9,32.0,28.2,23.0,80,66,38,30.03,29.91,16,4,0,0.00
2013-3-28,44.6,39.6,32.7,31.0,28.6,27.0,81,66,53,30.16,29.99,12,4,0,0.00
2013-3-29,49.1,42.7,34.7,32.0,28.9,26.0,73,59,45,30.18,30.10,11,4,0,0.00
2013-3-30,55.0,45.0,36.0,31.0,25.2,18.0,76,50,25,30.20,30.09,11,3,0,0.00
2013-3-31,54.1,45.0,39.1,41.0,33.4,21.0,94,66,43,30.13,29.71,21,4,0,0.18
2013-4-1,56.4,44.7,33.3,46.0,34.0,13.0,95,70,34,29.93,29.67,18,5,0,0.02
2013-4-2,40.4,34.3,29.4,15.0,13.0,11.0,53,42,31,30.12,29.93,17,7,0,0.00
2013-4-3,41.9,34.4,28.7,17.0,13.2,9.0,54,43,28,30.33,30.12,12,5,0,0.00
2013-4-4,50.9,37.7,27.5,26.0,18.8,12.0,60,48,32,30.41,30.09,8,2,0,0.00
2013-4-5,59.0,46.3,35.1,28.0,24.3,18.0,72,46,21,30.08,29.77,19,4,0,0.00
2013-4-6,51.4,39.6,30.5,25.0,16.8,12.0,58,42,23,30.31,30.03,12,3,0,0.00
2013-4-7,62.5,48.7,34.4,42.0,34.6,26.0,79,60,43,30.30,30.00,7,2,0,0.00
2013-4-8,75.3,61.2,49.2,50.0,44.5,39.0,76,57,32,30.09,29.96,9,2,0,0.00
2013-4-9,79.8,69.7,60.6,53.0,46.7,36.0,70,47,22,29.98,29.89,16,4,0,0.00
2013-4-10,84.5,69.2,58.2,58.0,54.0,50.0,91,60,39,29.92,29.76,11,3,0,0.36
2013-4-11,56.9,52.2,45.2,52.0,47.8,41.0,92,85,76,29.98,29.91,12,6,0,0.01
2013-4-12,45.5,41.7,39.7,41.0,39.3,38.0,94,91,80,29.95,29.71,17,6,0,0.57
2013-4-13,55.7,47.0,38.4,41.0,36.1,33.0,95,69,47,29.98,29.77,9,2,0,0.00
2013-4-14,56.8,49.6,43.2,36.0,31.4,27.0,69,51,36,30.18,29.97,15,4,0,0.00
2013-4-15,60.2,49.8,42.1,42.0,34.5,29.0,70,57,46,30.35,30.20,12,4,0,0.00
2013-4-16,69.0,56.8,45.1,57.0,48.7,38.0,87,75,63,30.35,30.12,9,3,0,0.00
2013-4-17,69.3,59.7,51.7,56.0,41.7,32.0,89,56,27,30.28,30.11,11,3,0,0.00
2013-4-18,55.5,52.5,49.1,53.0,45.4,37.0,94,77,58,30.30,30.08,12,5,0,0.03
2013-4-19,73.7,63.0,50.4,65.0,58.8,46.0,94,87,70,30.07,29.60,13,3,0,0.94
2013-4-20,53.4,47.8,41.6,46.0,32.9,24.0,90,59,38,30.32,29.70,19,7,0,0.12
2013-4-21,52.2,42.0,32.6,28.0,23.1,19.0,62,48,31,30.62,30.34,11,3,0,0.00
2013-4-22,49.9,43.3,36.7,36.0,31.0,26.0,79,63,50,30.64,30.47,17,5,0,0.00
2013-4-23,47.8,42.8,37.5,40.0,36.2,31.0,82,77,70,30.47,30.16,6,2,0,0.00
2013-4-24,71.1,55.9,40.6,55.0,46.8,37.0,87,72,54,30.14,29.81,8,2,0,0.00
2013-4-25,61.9,51.1,41.2,55.0,30.9,27.0,78,48,28,30.28,29.87,15,4,0,0.00
2013-4-26,61.9,53.1,44.8,36.0,29.5,23.0,63,42,23,30.42,30.27,10,3,0,0.00
2013-4-27,67.9,55.6,43.9,36.0,32.3,29.0,60,43,28,30.44,30.27,6,2,0,0.00
2013-4-28,69.9,58.1,47.6,43.0,37.7,33.0,65,48,34,30.31,30.17,9,1,0,0.00
2013-4-29,52.7,50.7,49.8,50.0,47.2,38.0,95,88,58,30.22,30.14,13,5,0,0.18
2013-4-30,63.3,54.2,48.3,49.0,42.1,25.0,95,68,31,30.33,30.19,12,5,0,0.02
2013-5-1,66.0,55.6,44.5,44.0,32.6,23.0,75,44,24,30.47,30.33,8,3,0,0.00
2013-5-2,71.3,58.2,43.8,47.0,42.2,39.0,87,58,34,30.46,30.33,6,1,0,0.00
2013-5-3,63.5,55.1,45.5,42.0,38.6,33.0,80,56,35,30.43,30.33,12,4,0,0.00
2013-5-4,68.6,54.8,42.4,45.0,41.4,38.0,88,64,39,30.36,30.21,11,3,0,0.00
2013-5-5,63.8,50.7,41.1,44.0,39.8,37.0,88,68,41,30.28,30.20,11,3,0,0.00
2013-5-6,66.8,53.9,42.5,53.0,46.9,39.0,93,78,61,30.25,30.14,11,3,0,0.00
2013-5-7,69.7,59.3,47.1,58.0,52.4,45.0,93,79,63,30.16,30.06,11,3,0,0.00
2013-5-8,68.8,59.7,55.4,60.0,56.6,52.0,95,89,71,30.07,29.92,9,3,0,0.80
2013-5-9,67.6,58.9,52.7,58.0,54.3,51.0,95,85,69,29.97,29.90,6,1,0,0.08
2013-5-10,79.5,66.7,54.8,60.0,56.8,53.0,94,72,44,30.01,29.89,4,1,0,0.20
2013-5-11,70.3,62.5,57.3,63.0,59.9,55.0,95,91,77,29.91,29.70,5,1,0,0.67
2013-5-12,59.6,55.6,45.8,55.0,39.9,27.0,92,58,29,29.95,29.68,11,4,0,0.00
2013-5-13,51.2,45.5,40.2,33.0,29.3,25.0,74,55,37,30.13,29.95,8,3,0,0.00
2013-5-14,59.1,47.1,36.0,33.0,28.6,22.0,81,52,26,30.17,30.04,13,2,0,0.00
2013-5-15,72.4,58.3,45.7,59.0,45.9,28.0,77,64,49,30.08,29.70,6,1,0,0.00
2013-5-16,81.4,69.1,59.6,63.0,53.5,41.0,87,61,29,29.85,29.72,6,1,0,0.00
2013-5-17,71.7,62.8,54.5,44.0,41.5,39.0,63,47,34,30.19,29.86,8,2,0,0.00
2013-5-18,63.5,58.6,55.1,55.0,48.7,41.0,88,70,50,30.29,30.19,5,1,0,0.02
2013-5-19,58.6,55.7,53.7,57.0,54.0,52.0,95,94,90,30.28,30.16,10,2,0,0.16
2013-5-20,77.6,65.3,55.6,68.0,61.2,54.0,96,87,70,30.18,29.97,4,0,0,0.01
2013-5-21,85.3,73.0,63.5,72.0,66.8,62.0,96,82,63,29.98,29.84,5,1,0,0.01
2013-5-22,85.4,73.4,65.8,73.0,68.0,64.0,95,84,58,29.90,29.80,5,1,0,0.00
2013-5-23,75.7,68.4,61.4,69.0,65.4,60.0,95,90,77,29.87,29.75,7,1,0,2.14
2013-5-24,61.2,51.2,41.8,60.0,47.9,38.0,96,88,76,30.00,29.70,15,3,0,0.18
2013-5-25,55.6,49.2,41.7,41.0,37.4,33.0,90,66,46,30.05,29.96,17,5,0,0.10
2013-5-26,65.7,54.9,42.5,40.0,36.0,32.0,80,51,32,30.22,30.02,12,3,0,0.00
2013-5-27,70.8,58.6,45.4,45.0,38.4,31.0,64,48,34,30.27,30.15,8,1,0,0.00
2013-5-28,58.4,55.7,51.4,55.0,50.2,42.0,95,82,60,30.22,30.12,4,0,0,0.37
2013-5-29,84.3,68.2,56.3,71.0,62.4,55.0,96,83,59,30.12,30.02,6,0,0,0.01
2013-5-30,89.4,77.6,66.4,69.0,65.8,63.0,91,69,44,30.14,30.07,4,0,0,0.00
2013-5-31,90.2,78.3,69.0,73.0,65.7,60.0,87,67,42,30.12,30.00,2,0,0,0.00
2013-6-1,88.2,77.7,67.4,73.0,67.8,64.0,91,72,54,30.01,29.89,5,1,0,0.00
2013-6-2,82.8,76.2,69.6,72.0,68.0,65.0,86,76,65,29.90,29.77,6,1,0,0.00
2013-6-3,78.7,69.6,63.6,67.0,63.0,51.0,94,80,62,29.89,29.79,6,1,0,0.33
2013-6-4,73.4,63.0,53.0,51.0,44.6,37.0,72,53,35,30.12,29.89,11,3,0,0.00
2013-6-5,74.7,63.9,52.8,54.0,45.8,36.0,72,53,40,30.20,30.09,5,1,0,0.00
2013-6-6,67.9,60.0,54.8,58.0,54.3,49.0,94,82,59,30.13,29.97,7,2,0,0.23
2013-6-7,62.6,59.9,57.9,61.0,58.3,56.0,95,95,94,29.96,29.63,12,3,0,2.01
2013-6-8,74.9,64.8,56.8,65.0,60.0,55.0,94,85,67,30.06,29.62,11,1,0,0.05
2013-6-9,80.7,69.1,57.3,63.0,58.7,54.0,89,71,49,30.18,30.07,4,1,0,0.00
2013-6-10,69.4,65.7,63.3,68.0,62.7,60.0,96,90,77,30.14,29.78,7,2,0,0.90
2013-6-11,75.7,70.2,64.7,68.0,64.7,60.0,96,83,67,29.77,29.66,10,2,0,0.01
2013-6-12,77.3,69.0,62.9,60.0,56.6,54.0,82,66,46,29.85,29.74,15,2,0,0.00
2013-6-13,64.3,60.8,55.3,61.0,57.3,53.0,94,88,72,29.84,29.43,10,2,0,1.61
2013-6-14,73.9,60.7,52.4,59.0,53.4,49.0,93,78,53,29.93,29.54,12,2,0,0.07
2013-6-15,78.0,67.9,59.1,60.0,55.5,53.0,80,66,43,30.03,29.92,6,1,0,0.00
2013-6-16,79.3,69.1,59.8,66.0,59.2,53.0,90,72,56,30.00,29.80,9,1,0,0.00
2013-6-17,81.2,71.4,63.9,72.0,65.2,61.0,93,81,60,29.92,29.84,5,0,0,0.38
2013-6-18,79.4,69.2,59.3,71.0,65.3,57.0,94,87,70,29.90,29.80,6,0,0,0.32
2013-6-19,76.3,65.1,56.7,56.0,53.0,50.0,91,67,43,30.16,29.88,9,2,0,0.00
2013-6-20,78.6,67.2,55.5,62.0,57.3,53.0,92,72,51,30.27,30.16,5,0,0,0.00
2013-6-21,81.1,69.5,57.4,63.0,56.5,49.0,78,64,49,30.30,30.22,4,0,0,0.00
2013-6-22,82.5,71.1,58.4,69.0,61.6,52.0,83,73,58,30.26,30.12,6,1,0,0.00
2013-6-23,85.0,74.3,64.0,72.0,67.3,61.0,93,79,63,30.19,30.05,4,0,0,0.00
2013-6-24,88.2,73.6,65.9,73.0,68.2,64.0,95,84,57,30.08,29.97,9,0,0,0.56
2013-6-25,87.2,75.1,66.4,74.0,68.6,64.0,93,81,61,30.01,29.82,4,0,0,0.14
2013-6-26,84.4,74.9,68.1,72.0,66.7,63.0,88,76,63,29.86,29.78,8,1,0,0.00
2013-6-27,86.8,75.6,68.5,73.0,68.6,64.0,94,79,62,29.82,29.52,7,1,0,0.83
2013-6-28,83.1,73.4,65.8,72.0,68.1,63.0,95,84,64,29.55,29.47,6,1,0,0.02
2013-6-29,83.5,73.1,64.8,69.0,65.6,63.0,95,79,56,29.70,29.47,4,0,0,0.00
2013-6-30,80.6,73.8,67.9,73.0,68.6,63.0,91,84,77,29.89,29.70,5,0,0,0.01
2013-7-1,74.9,72.4,68.6,72.0,70.4,67.0,96,93,88,30.01,29.87,6,1,0,1.19
2013-7-2,81.9,74.7,71.4,74.0,71.3,69.0,96,89,76,30.16,30.01,4,0,0,0.04
2013-7-3,83.0,74.9,69.5,75.0,71.2,68.0,94,88,74,30.24,30.16,4,0,0,0.03
2013-7-4,86.0,77.9,72.2,75.0,72.4,70.0,95,84,69,30.25,30.15,5,1,0,0.00
2013-7-5,88.4,79.3,71.4,75.0,72.2,69.0,95,80,63,30.20,30.09,5,1,0,0.00
2013-7-6,89.8,79.6,71.7,76.0,72.5,70.0,94,80,61,30.15,30.03,4,0,0,0.00
2013-7-7,88.5,78.9,68.3,77.0,72.2,67.0,94,81,64,30.07,29.94,5,1,0,0.19
2013-7-8,84.0,72.8,65.9,72.0,67.6,64.0,95,84,63,30.06,29.98,6,1,0,0.01
2013-7-9,84.7,74.5,67.0,74.0,68.8,64.0,90,82,71,30.07,30.00,4,0,0,0.00
2013-7-10,83.6,76.7,71.7,74.0,71.9,69.0,94,85,71,30.01,29.82,6,1,0,0.02
2013-7-11,82.9,76.0,71.9,73.0,69.2,60.0,94,80,63,29.92,29.80,5,0,0,0.00
2013-7-12,74.8,70.3,67.0,68.0,64.0,60.0,94,81,66,30.06,29.92,7,2,0,0.51
2013-7-13,83.0,72.3,65.9,75.0,69.6,64.0,96,91,76,30.29,30.06,7,1,0,0.33
2013-7-14,88.7,78.3,72.4,76.0,72.8,70.0,96,84,63,30.34,30.25,6,0,0,0.01
2013-7-15,91.4,80.7,73.0,78.0,72.8,70.0,91,77,58,30.26,30.14,5,1,0,0.00
2013-7-16,90.4,81.2,72.8,75.0,69.9,66.0,81,69,52,30.21,30.13,6,1,0,0.00
2013-7-17,93.4,82.9,75.0,77.0,70.5,66.0,79,67,47,30.20,30.06,5,1,0,0.00
2013-7-18,95.4,83.5,75.9,79.0,73.8,69.0,83,73,54,30.07,29.96,5,0,0,0.00
2013-7-19,92.0,82.2,73.1,80.0,74.7,69.0,92,79,63,29.98,29.80,5,0,0,0.12
2013-7-20,88.3,76.8,70.6,76.0,71.6,68.0,94,84,64,29.84,29.74,6,1,0,0.45
2013-7-21,86.1,76.8,70.3,73.0,69.2,66.0,93,78,62,29.95,29.84,6,0,0,0.01
2013-7-22,83.6,74.1,69.5,75.0,69.9,65.0,94,87,73,29.94,29.78,5,1,0,0.20
2013-7-23,82.7,73.9,69.1,75.0,70.3,68.0,96,88,71,29.78,29.58,5,0,0,1.29
2013-7-24,76.8,70.4,60.7,68.0,62.4,52.0,91,76,60,29.93,29.62,9,2,0,0.00
2013-7-25,68.9,62.1,57.0,60.0,55.1,51.0,88,78,71,30.06,29.92,9,2,0,0.00
2013-7-26,81.5,68.9,59.6,65.0,59.4,56.0,89,73,50,30.06,30.01,4,1,0,0.00
2013-7-27,81.7,71.5,61.6,68.0,62.9,57.0,88,75,60,30.05,29.93,4,0,0,0.00
2013-7-28,76.0,68.8,65.0,70.0,65.8,61.0,94,90,80,29.98,29.88,6,0,0,1.34
2013-7-29,78.3,69.6,62.1,65.0,60.6,55.0,95,75,49,30.12,29.95,6,1,0,0.01
2013-7-30,77.4,67.7,59.7,63.0,57.7,55.0,83,71,54,30.19,30.12,6,1,0,0.00
2013-7-31,79.8,70.6,60.1,65.0,61.0,56.0,88,72,52,30.16,30.03,3,0,0,0.00
2013-8-1,67.3,66.3,64.2,66.0,63.7,62.0,95,91,84,30.03,29.82,5,1,0,0.43
2013-8-2,80.0,70.7,63.4,68.0,63.7,57.0,95,79,57,29.93,29.81,6,1,0,0.01
2013-8-3,74.3,67.2,63.3,67.0,62.3,57.0,93,85,65,29.92,29.87,4,0,0,0.10
2013-8-4,75.0,67.8,62.2,64.0,57.6,52.0,93,71,53,30.00,29.87,9,2,0,0.01
2013-8-5,74.5,64.7,56.9,60.0,52.9,50.0,80,67,44,30.08,29.99,6,1,0,0.00
2013-8-6,78.2,67.6,57.5,64.0,57.8,51.0,89,72,49,30.11,30.04,6,0,0,0.00
2013-8-7,73.7,68.0,63.7,67.0,64.5,60.0,93,88,79,30.12,30.04,6,1,0,0.01
2013-8-8,80.5,72.3,67.6,75.0,69.7,66.0,95,91,79,30.05,29.98,3,0,0,0.27
2013-8-9,83.3,74.4,71.2,75.0,71.8,69.0,96,91,77,29.99,29.81,5,1,0,0.26
2013-8-10,81.2,72.2,65.8,72.0,64.7,59.0,95,78,59,30.05,29.88,6,1,0,0.01
2013-8-11,78.9,69.3,59.2,68.0,59.6,53.0,92,72,57,30.14,30.02,4,0,0,0.32
2013-8-12,82.0,71.7,66.1,67.0,64.8,59.0,95,80,51,30.04,29.93,4,0,0,0.11
2013-8-13,79.6,70.6,64.2,71.0,66.7,62.0,95,87,72,29.92,29.70,3,0,0,0.91
2013-8-14,69.7,61.6,55.0,62.0,49.9,-99.9,86,70,57,30.07,29.77,10,3,0,0.00
2013-8-15,75.3,63.0,53.6,58.0,52.1,48.0,86,69,44,30.17,30.07,6,1,0,0.00
2013-8-16,78.1,66.9,55.5,60.0,54.5,51.0,86,66,44,30.20,30.13,4,0,0,0.00
2013-8-17,80.3,69.1,58.9,64.0,58.2,54.0,89,69,43,30.27,30.20,4,1,0,0.00
2013-8-18,70.2,66.4,62.7,65.0,60.3,56.0,90,81,71,30.26,30.14,4,1,0,0.02
2013-8-19,73.5,66.9,61.6,66.0,61.6,58.0,93,83,68,30.14,30.05,4,1,0,0.01
2013-8-20,84.3,72.5,64.2,70.0,65.4,62.0,93,80,56,30.14,30.07,5,1,0,0.01
2013-8-21,84.7,74.5,64.6,71.0,64.9,60.0,88,73,53,30.18,30.05,5,0,0,0.01
2013-8-22,80.4,72.1,68.8,73.0,68.9,66.0,94,90,76,30.07,29.89,2,0,0,0.62
2013-8-23,76.5,70.0,66.3,67.0,61.9,56.0,90,76,59,30.11,29.89,9,1,0,0.62
2013-8-24,77.1,66.7,59.3,58.0,54.0,51.0,76,65,45,30.35,30.11,7,2,0,0.00
2013-8-25,78.5,66.8,57.9,62.0,57.1,53.0,86,72,51,30.41,30.25,4,1,0,0.00
2013-8-26,80.3,68.8,59.6,70.0,62.3,55.0,91,80,69,30.25,29.94,4,0,0,0.04
2013-8-27,85.4,74.3,67.7,73.0,67.5,65.0,94,80,60,29.93,29.86,9,1,0,0.10
2013-8-28,75.3,70.2,68.4,70.0,68.0,66.0,95,93,84,29.89,29.84,4,0,0,1.21
2013-8-29,79.1,71.3,67.3,70.0,67.8,65.0,95,89,74,30.02,29.88,4,0,0,1.22
2013-8-30,80.5,71.4,65.2,73.0,67.7,63.0,94,88,75,30.02,29.87,3,0,0,0.00
2013-8-31,82.9,74.9,69.7,75.0,71.0,68.0,94,88,76,29.87,29.79,2,0,0,0.01
2013-9-1,84.1,74.9,68.3,76.0,71.0,66.0,94,88,76,29.84,29.77,4,0,0,0.50
2013-9-2,75.7,71.4,68.3,72.0,69.5,66.0,95,93,86,29.79,29.71,9,0,0,0.69
2013-9-3,76.6,69.9,61.8,69.0,63.1,57.0,95,80,55,29.91,29.71,8,1,0,0.70
2013-9-4,77.4,66.1,58.4,65.0,58.6,55.0,90,77,55,30.02,29.90,9,1,0,0.00
2013-9-5,73.6,65.0,57.7,62.0,54.3,47.0,87,70,42,30.16,29.95,8,1,0,0.00
2013-9-6,67.2,57.5,50.0,48.0,44.8,42.0,80,64,42,30.27,30.15,5,1,0,0.00
2013-9-7,75.6,61.7,50.4,59.0,51.0,43.0,86,69,48,30.15,29.92,4,0,0,0.00
2013-9-8,76.4,66.6,57.5,66.0,56.4,46.0,87,71,48,30.08,29.85,9,2,0,0.00
2013-9-9,72.2,62.0,51.8,60.0,52.6,44.0,85,71,60,30.23,30.09,5,1,0,0.00
2013-9-10,84.1,72.7,63.3,75.0,68.1,59.0,93,85,74,30.17,30.06,4,0,0,0.00
2013-9-11,89.9,78.9,70.7,80.0,73.2,69.0,94,83,67,30.12,29.98,4,0,0,0.00
2013-9-12,75.5,72.6,70.9,70.0,69.2,68.0,92,89,84,29.98,29.91,1,0,0,0.00
2013-9-13,69.6,62.7,54.5,60.0,53.6,50.0,84,72,63,29.88,29.69,11,2,0,0.02
2013-9-14,58.4,53.4,47.0,49.0,46.5,43.0,87,77,69,30.16,29.88,10,3,0,0.00
2013-9-15,70.6,56.3,45.7,57.0,48.9,42.0,89,77,53,30.24,30.10,5,1,0,0.00
2013-9-16,66.6,59.2,52.8,58.0,53.8,47.0,92,83,65,30.26,30.04,5,1,0,0.07
2013-9-17,63.3,51.8,43.3,47.0,42.7,40.0,88,73,49,30.43,30.26,7,1,0,0.00
2013-9-18,68.6,54.3,44.2,51.0,46.0,42.0,91,75,47,30.36,30.20,4,0,0,0.00
2013-9-19,73.4,59.0,47.7,58.0,50.5,44.0,89,75,52,30.21,30.08,3,0,0,0.00
2013-9-20,76.7,63.9,54.3,63.0,56.9,52.0,93,79,55,30.09,29.98,4,0,0,0.00
2013-9-21,75.5,63.8,54.9,63.0,57.6,53.0,94,82,55,30.00,29.68,7,1,0,0.52
2013-9-22,63.6,58.2,51.6,60.0,50.0,42.0,93,75,54,29.93,29.67,10,2,0,0.17
2013-9-23,61.3,52.7,46.2,46.0,42.9,41.0,83,70,55,30.06,29.93,15,2,0,0.00
2013-9-24,71.3,55.1,40.9,50.0,44.5,38.0,90,70,44,30.07,29.92,8,2,0,0.00
2013-9-25,70.1,57.5,48.6,53.0,47.1,43.0,81,69,44,29.98,29.89,7,1,0,0.00
2013-9-26,70.1,59.7,52.7,58.0,53.2,48.0,89,79,59,30.10,29.94,5,1,0,0.00
2013-9-27,66.7,58.1,48.6,55.0,51.5,46.0,91,79,61,30.27,30.10,4,1,0,0.00
2013-9-28,70.1,60.2,53.8,55.0,52.1,48.0,91,76,48,30.33,30.24,7,1,0,0.00
2013-9-29,69.8,59.0,52.6,58.0,52.8,49.0,92,81,60,30.24,30.08,5,0,0,0.00
2013-9-30,70.6,58.4,50.0,56.0,51.5,47.0,91,79,54,30.09,29.99,3,0,0,0.00
2013-10-1,76.1,63.4,54.5,62.0,56.1,51.0,88,78,58,30.03,29.93,5,1,0,0.00
2013-10-2,79.7,68.0,58.6,64.0,59.6,54.0,88,75,58,30.03,29.95,5,1,0,0.00
2013-10-3,76.5,67.4,59.5,65.0,59.9,56.0,90,77,58,30.12,30.03,3,0,0,0.00
2013-10-4,81.5,70.7,62.3,68.0,64.2,60.0,92,81,62,30.07,29.98,4,0,0,0.00
2013-10-5,81.6,71.0,63.6,68.0,64.6,61.0,92,81,62,30.08,30.00,7,0,0,0.00
2013-10-6,68.8,65.0,62.6,66.0,63.0,61.0,94,93,90,30.07,29.99,7,2,0,0.27
2013-10-7,72.5,63.3,54.2,69.0,60.6,47.0,94,91,78,30.00,29.73,11,3,0,0.42
2013-10-8,63.4,55.7,48.8,50.0,46.2,44.0,84,71,53,30.33,30.00,7,1,0,0.00
2013-10-9,57.8,53.0,47.0,48.0,44.2,40.0,83,72,61,30.39,30.29,7,2,0,0.00
2013-10-10,56.1,52.6,48.4,52.0,48.6,45.0,91,86,78,30.27,30.06,7,2,0,0.12
2013-10-11,62.8,58.4,53.7,59.0,54.8,51.0,91,87,83,30.09,30.00,8,2,0,0.14
2013-10-12,70.4,62.5,55.8,57.0,48.6,40.0,84,62,40,30.25,30.06,11,3,0,0.00
2013-10-13,63.8,57.3,52.3,54.0,51.0,49.0,90,80,67,30.37,30.25,11,2,0,0.00
2013-10-14,66.3,55.9,46.9,52.0,48.8,45.0,92,78,58,30.36,30.24,5,1,0,0.00
2013-10-15,69.7,57.5,49.2,56.0,47.1,31.0,92,71,34,30.26,30.12,9,1,0,0.00
2013-10-16,62.8,57.1,51.8,58.0,54.0,49.0,93,89,83,30.11,29.93,5,0,0,0.00
2013-10-17,70.9,62.9,58.4,62.0,59.3,56.0,94,88,69,29.92,29.69,2,0,0,0.03
2013-10-18,62.9,55.6,48.2,61.0,45.7,41.0,92,70,53,30.00,29.70,11,3,0,0.00
2013-10-19,59.0,52.5,45.8,50.0,44.8,40.0,92,76,61,30.00,29.77,5,1,0,0.07
2013-10-20,58.9,49.8,43.8,50.0,39.3,35.0,90,69,43,30.08,29.79,11,3,0,0.01
2013-10-21,64.7,52.4,42.4,46.0,39.6,36.0,80,64,42,30.16,29.99,5,1,0,0.00
2013-10-22,59.1,51.9,45.9,51.0,43.6,33.0,92,75,48,29.98,29.78,8,2,0,0.00
2013-10-23,52.4,44.4,38.9,40.0,34.8,31.0,82,70,54,29.82,29.65,5,1,0,0.01
2013-10-24,48.0,41.5,35.5,35.0,31.0,27.0,88,68,45,30.04,29.79,10,4,0,0.00
2013-10-25,48.8,41.8,35.8,35.0,32.0,29.0,84,69,52,30.25,30.04,13,3,0,0.00
2013-10-26,51.6,42.2,31.0,34.0,31.1,28.0,89,67,45,30.25,29.91,9,1,0,0.00
2013-10-27,52.7,47.0,42.4,36.0,32.4,31.0,68,58,46,30.14,29.88,11,3,0,0.00
2013-10-28,57.6,46.6,36.1,37.0,33.3,30.0,79,61,44,30.32,30.14,8,1,0,0.00
2013-10-29,54.7,46.9,39.6,36.0,34.1,32.0,76,62,46,30.42,30.32,9,2,0,0.00
2013-10-30,56.5,49.5,42.7,50.0,44.4,36.0,91,83,77,30.35,30.19,4,0,0,0.00
2013-10-31,63.4,56.9,51.5,59.0,53.8,49.0,93,89,80,30.23,29.80,5,1,0,0.03
2013-11-1,67.3,62.0,55.9,62.0,55.9,49.0,92,81,60,29.79,29.53,15,3,0,0.16
2013-11-2,63.1,55.8,48.2,49.0,43.2,39.0,74,64,50,29.80,29.63,7,2,0,0.00
2013-11-3,49.1,41.8,31.4,42.0,30.6,19.0,82,65,45,30.46,29.80,11,3,0,0.00
2013-11-4,43.2,35.1,28.5,24.0,19.4,16.0,68,54,34,30.68,30.46,9,2,0,0.00
2013-11-5,53.3,44.8,34.5,41.0,35.2,23.0,85,69,57,30.66,30.49,7,2,0,0.00
2013-11-6,61.3,51.9,45.0,49.0,45.5,41.0,88,79,62,30.50,30.07,7,1,0,0.00
2013-11-7,56.8,49.9,40.0,54.0,45.8,34.0,93,85,71,30.06,29.80,13,3,0,0.14
2013-11-8,45.4,39.8,35.0,34.0,29.1,26.0,78,66,49,30.25,29.96,16,4,0,0.00
2013-11-9,48.1,39.8,32.2,34.0,28.7,26.0,80,66,46,30.31,30.00,5,1,0,0.00
2013-11-10,54.8,45.8,36.8,37.0,32.0,28.0,81,60,48,30.08,29.89,15,5,0,0.00
2013-11-11,50.8,44.4,37.9,35.0,30.2,26.0,64,58,48,30.23,29.98,15,3,0,0.00
2013-11-12,47.7,33.8,27.0,36.0,21.9,15.0,84,63,53,30.33,29.94,12,4,0,0.00
2013-11-13,35.8,29.2,24.2,20.0,15.6,12.0,68,58,42,30.41,30.31,14,4,0,0.00
2013-11-14,48.6,39.0,27.4,20.0,17.4,14.0,70,44,26,30.30,30.21,12,3,0,0.00
2013-11-15,55.1,45.5,38.0,29.0,23.0,19.0,54,42,27,30.26,30.18,4,0,0,0.00
2013-11-16,56.6,48.3,41.2,45.0,40.4,26.0,92,76,42,30.34,30.25,6,1,0,0.04
2013-11-17,61.2,54.3,47.2,57.0,51.6,45.0,94,90,83,30.26,29.76,6,2,0,0.04
2013-11-18,60.6,56.0,45.9,59.0,39.9,27.0,93,58,36,29.82,29.62,15,6,0,0.19
2013-11-19,45.6,39.4,32.8,29.0,24.7,22.0,64,56,50,30.36,29.82,15,6,0,0.00
2013-11-20,42.6,34.2,29.6,21.0,15.6,7.0,69,49,25,30.62,30.36,11,3,0,0.00
2013-11-21,48.3,40.6,31.5,39.0,28.7,14.0,79,63,46,30.61,30.40,11,2,0,0.00
2013-11-22,52.5,48.5,44.4,48.0,44.5,39.0,92,86,80,30.40,29.95,10,2,0,0.07
2013-11-23,50.7,37.2,25.3,46.0,25.5,6.0,87,63,43,30.09,29.94,18,7,0,0.00
2013-11-24,24.9,21.8,18.9,7.0,2.9,1.0,55,44,37,30.43,30.07,23,8,0,0.00
2013-11-25,31.9,24.8,18.3,15.0,12.4,6.0,77,60,48,30.52,30.36,9,2,0,0.00
2013-11-26,43.3,31.8,27.9,42.0,24.9,15.0,93,77,58,30.36,29.70,18,3,0,0.72
2013-11-27,56.8,39.9,28.5,55.0,36.7,20.0,93,88,64,29.80,29.41,22,7,0,0.93
2013-11-28,31.6,27.9,25.3,23.0,16.5,12.0,80,63,46,30.48,29.81,18,6,0,0.00
2013-11-29,33.4,28.3,24.1,24.0,18.9,15.0,77,68,57,30.75,30.48,8,1,0,0.00
2013-11-30,32.8,27.5,20.7,28.0,18.7,10.0,83,70,56,30.75,30.40,9,3,0,0.00
2013-12-1,44.0,36.4,31.5,31.0,29.0,27.0,87,75,59,30.40,30.04,6,1,0,0.00
2013-12-2,45.0,39.1,34.5,33.0,30.3,27.0,78,71,59,30.03,29.90,4,0,0,0.00
2013-12-3,49.7,42.0,36.4,37.0,34.6,32.0,88,76,56,30.02,29.90,6,1,0,0.00
2013-12-4,48.4,43.6,38.0,44.0,38.1,34.0,88,81,73,30.13,30.02,6,2,0,0.00
2013-12-5,54.8,50.3,46.0,53.0,48.6,43.0,94,93,88,30.12,29.93,7,1,0,0.03
2013-12-6,58.7,43.7,33.8,57.0,41.2,32.0,95,91,77,30.16,29.87,9,2,0,0.94
2013-12-7,33.9,31.8,27.0,32.0,26.2,19.0,92,80,70,30.53,30.10,10,3,0,0.02
2013-12-8,27.9,25.2,23.3,25.0,19.3,15.0,92,78,68,30.60,30.38,8,2,0,0.00
2013-12-9,34.2,31.8,27.6,32.0,29.9,25.0,94,92,86,30.36,30.01,10,2,0,0.13
2013-12-10,34.0,29.4,24.8,30.0,25.5,15.0,93,85,64,30.15,29.93,10,3,0,0.00
2013-12-11,29.4,25.0,21.7,19.0,15.2,13.0,72,66,55,30.35,30.16,11,4,0,0.04
2013-12-12,25.2,20.6,15.8,17.0,8.9,4.0,84,61,47,30.39,30.18,9,4,0,0.00
2013-12-13,31.0,24.5,15.0,18.0,12.7,5.0,67,61,55,30.35,30.16,12,3,0,0.00
2013-12-14,28.7,23.2,19.4,27.0,19.1,17.0,92,84,67,30.46,29.78,15,5,0,0.00
2013-12-15,34.9,29.3,22.5,31.0,25.0,21.0,92,84,68,29.87,29.59,15,3,0,0.26
2013-12-16,29.3,22.4,17.5,22.0,11.1,7.0,75,62,50,30.24,29.86,20,5,0,0.00
2013-12-17,24.4,19.9,15.9,22.0,16.0,10.0,91,85,65,30.23,29.96,12,2,0,0.00
2013-12-18,33.2,25.9,16.7,22.0,19.2,14.0,90,76,61,30.21,29.96,9,4,0,0.01
2013-12-19,41.7,32.6,22.2,28.0,23.7,17.0,85,70,56,30.21,30.07,4,1,0,0.11
2013-12-20,47.9,42.9,37.3,36.0,30.9,27.0,71,63,55,30.13,29.99,5,0,0,0.04
2013-12-21,55.8,50.3,44.3,52.0,44.4,37.0,90,80,69,30.02,29.91,5,1,0,0.00
2013-12-22,65.1,59.8,54.4,61.0,56.6,52.0,93,89,83,29.96,29.80,6,1,0,0.04
2013-12-23,57.6,50.8,36.2,55.0,47.9,29.0,93,89,72,30.17,29.90,13,3,0,0.76
2013-12-24,35.9,30.4,20.8,29.0,21.6,13.0,91,70,60,30.39,30.13,11,4,0,0.00
2013-12-25,23.0,19.5,13.7,16.0,9.9,6.0,74,66,57,30.55,30.39,11,3,0,0.00
2013-12-26,31.9,26.6,21.1,26.0,21.1,16.0,89,80,70,30.43,30.21,11,2,0,0.01
2013-12-27,37.6,31.3,26.1,24.0,21.0,19.0,74,66,53,30.38,30.30,7,2,0,0.00
2013-12-28,50.9,39.8,29.1,30.0,25.5,20.0,74,58,43,30.31,30.10,9,2,0,0.01
2013-12-29,44.3,40.2,38.2,38.0,33.0,27.0,92,77,52,30.09,29.48,17,3,0,0.99
2013-12-30,41.4,33.7,20.7,37.0,26.6,12.0,91,75,63,30.18,29.73,13,4,0,0.00
2013-12-31,28.5,21.9,15.2,25.0,14.0,9.0,88,72,57,30.32,30.08,17,3,0,0.00
2014-1-1,29.9,25.3,17.6,20.0,16.7,9.0,75,70,64,30.43,30.23,7,2,0,0.00
2014-1-2,27.4,22.3,11.0,22.0,18.2,8.0,89,84,73,30.23,29.69,8,3,0,0.00